sensor_id;sensor_type;location;lat;lon;timestamp;pressure;altitude;pressure_sealevel;temperature;humidity
55044;BME280;54902;50.420;18.854;2022-12-18T00:00:16;102831.23;;;-3.55;84.87
55044;BME280;54902;50.420;18.854;2022-12-18T00:00:48;102826.80;;;-3.55;84.88
55044;BME280;54902;50.420;18.854;2022-12-18T00:01:41;102841.03;;;-3.54;84.91
55044;BME280;54902;50.420;18.854;2022-12-18T00:02:03;102828.55;;;-3.58;85.05
55044;BME280;54902;50.420;18.854;2022-12-18T00:02:34;102835.68;;;-3.56;84.91
55044;BME280;54902;50.420;18.854;2022-12-18T00:03:05;102830.34;;;-3.54;84.92
55044;BME280;54902;50.420;18.854;2022-12-18T00:03:36;102838.35;;;-3.54;84.92
55044;BME280;54902;50.420;18.854;2022-12-18T00:04:22;102831.23;;;-3.55;84.91
55044;BME280;54902;50.420;18.854;2022-12-18T00:04:49;102833.02;;;-3.54;84.92
55044;BME280;54902;50.420;18.854;2022-12-18T00:05:20;102836.56;;;-3.54;84.92
55044;BME280;54902;50.420;18.854;2022-12-18T00:05:51;102834.80;;;-3.55;84.90
55044;BME280;54902;50.420;18.854;2022-12-18T00:06:24;102834.80;;;-3.55;84.89
55044;BME280;54902;50.420;18.854;2022-12-18T00:06:56;102826.80;;;-3.55;84.91
55044;BME280;54902;50.420;18.854;2022-12-18T00:07:27;102825.00;;;-3.54;84.91
55044;BME280;54902;50.420;18.854;2022-12-18T00:07:58;102838.35;;;-3.54;84.91
55044;BME280;54902;50.420;18.854;2022-12-18T00:08:29;102836.56;;;-3.55;84.91
55044;BME280;54902;50.420;18.854;2022-12-18T00:09:00;102837.48;;;-3.55;84.90
55044;BME280;54902;50.420;18.854;2022-12-18T00:09:32;102837.48;;;-3.55;84.88
55044;BME280;54902;50.420;18.854;2022-12-18T00:10:03;102844.58;;;-3.54;84.92
55044;BME280;54902;50.420;18.854;2022-12-18T00:10:35;102841.91;;;-3.55;84.90
55044;BME280;54902;50.420;18.854;2022-12-18T00:11:08;102841.03;;;-3.54;84.92
55044;BME280;54902;50.420;18.854;2022-12-18T00:11:39;102848.16;;;-3.55;84.90
55044;BME280;54902;50.420;18.854;2022-12-18T00:12:10;102848.16;;;-3.55;84.90
55044;BME280;54902;50.420;18.854;2022-12-18T00:12:41;102847.24;;;-3.54;84.92
55044;BME280;54902;50.420;18.854;2022-12-18T00:13:12;102842.82;;;-3.55;84.92
55044;BME280;54902;50.420;18.854;2022-12-18T00:13:43;102849.91;;;-3.54;84.92
55044;BME280;54902;50.420;18.854;2022-12-18T00:14:15;102852.59;;;-3.54;84.93
55044;BME280;54902;50.420;18.854;2022-12-18T00:14:46;102845.48;;;-3.53;84.93
55044;BME280;54902;50.420;18.854;2022-12-18T00:15:17;102848.17;;;-3.53;84.94
55044;BME280;54902;50.420;18.854;2022-12-18T00:15:48;102844.58;;;-3.54;84.94
55044;BME280;54902;50.420;18.854;2022-12-18T00:16:20;102847.24;;;-3.54;84.91
55044;BME280;54902;50.420;18.854;2022-12-18T00:16:52;102844.58;;;-3.54;84.93
55044;BME280;54902;50.420;18.854;2022-12-18T00:17:23;102849.91;;;-3.54;84.92
55044;BME280;54902;50.420;18.854;2022-12-18T00:17:53;102846.38;;;-3.53;84.92
55044;BME280;54902;50.420;18.854;2022-12-18T00:18:24;102845.48;;;-3.53;84.93
55044;BME280;54902;50.420;18.854;2022-12-18T00:18:56;102844.58;;;-3.54;84.93
55044;BME280;54902;50.420;18.854;2022-12-18T00:19:28;102845.48;;;-3.53;84.91
55044;BME280;54902;50.420;18.854;2022-12-18T00:19:59;102856.18;;;-3.53;84.92
55044;BME280;54902;50.420;18.854;2022-12-18T00:20:30;102850.83;;;-3.53;84.91
55044;BME280;54902;50.420;18.854;2022-12-18T00:21:04;102850.83;;;-3.53;84.92
55044;BME280;54902;50.420;18.854;2022-12-18T00:21:36;102849.91;;;-3.54;84.91
55044;BME280;54902;50.420;18.854;2022-12-18T00:22:07;102847.24;;;-3.52;84.93
55044;BME280;54902;50.420;18.854;2022-12-18T00:22:38;102848.17;;;-3.52;84.91
55044;BME280;54902;50.420;18.854;2022-12-18T00:23:09;102856.19;;;-3.52;84.93
55044;BME280;54902;50.420;18.854;2022-12-18T00:23:41;102849.93;;;-3.52;84.91
55044;BME280;54902;50.420;18.854;2022-12-18T00:24:12;102855.26;;;-3.52;84.93
55044;BME280;54902;50.420;18.854;2022-12-18T00:24:43;102857.92;;;-3.52;84.93
55044;BME280;54902;50.420;18.854;2022-12-18T00:25:14;102849.05;;;-3.51;84.92
55044;BME280;54902;50.420;18.854;2022-12-18T00:25:45;102857.97;;;-3.51;84.93
55044;BME280;54902;50.420;18.854;2022-12-18T00:26:19;102854.39;;;-3.51;84.94
55044;BME280;54902;50.420;18.854;2022-12-18T00:26:51;102855.26;;;-3.52;84.94
55044;BME280;54902;50.420;18.854;2022-12-18T00:27:21;102861.52;;;-3.52;84.93
55044;BME280;54902;50.420;18.854;2022-12-18T00:27:52;102857.05;;;-3.50;84.96
55044;BME280;54902;50.420;18.854;2022-12-18T00:28:23;102860.63;;;-3.51;84.93
55044;BME280;54902;50.420;18.854;2022-12-18T00:28:58;102857.05;;;-3.50;84.95
55044;BME280;54902;50.420;18.854;2022-12-18T00:29:29;102860.63;;;-3.51;84.95
55044;BME280;54902;50.420;18.854;2022-12-18T00:30:00;102859.73;;;-3.51;84.96
55044;BME280;54902;50.420;18.854;2022-12-18T00:30:31;102855.30;;;-3.51;84.95
55044;BME280;54902;50.420;18.854;2022-12-18T00:31:07;102864.19;;;-3.50;84.96
55044;BME280;54902;50.420;18.854;2022-12-18T00:31:40;102856.19;;;-3.50;84.97
55044;BME280;54902;50.420;18.854;2022-12-18T00:32:11;102860.63;;;-3.51;84.97
55044;BME280;54902;50.420;18.854;2022-12-18T00:32:42;102852.64;;;-3.51;84.96
55044;BME280;54902;50.420;18.854;2022-12-18T00:33:13;102854.39;;;-3.51;84.97
55044;BME280;54902;50.420;18.854;2022-12-18T00:33:44;102861.52;;;-3.50;84.96
55044;BME280;54902;50.420;18.854;2022-12-18T00:34:15;102860.63;;;-3.51;84.97
55044;BME280;54902;50.420;18.854;2022-12-18T00:34:46;102849.95;;;-3.51;84.98
55044;BME280;54902;50.420;18.854;2022-12-18T00:35:17;102862.41;;;-3.50;84.98
55044;BME280;54902;50.420;18.854;2022-12-18T00:35:48;102859.73;;;-3.51;84.97
55044;BME280;54902;50.420;18.854;2022-12-18T00:36:25;102865.08;;;-3.50;84.99
55044;BME280;54902;50.420;18.854;2022-12-18T00:36:57;102862.41;;;-3.50;84.99
55044;BME280;54902;50.420;18.854;2022-12-18T00:37:28;102865.08;;;-3.51;84.99
55044;BME280;54902;50.420;18.854;2022-12-18T00:37:59;102873.09;;;-3.50;85.00
55044;BME280;54902;50.420;18.854;2022-12-18T00:38:30;102881.09;;;-3.50;85.00
55044;BME280;54902;50.420;18.854;2022-12-18T00:39:03;102873.09;;;-3.50;85.00
55044;BME280;54902;50.420;18.854;2022-12-18T00:39:34;102870.41;;;-3.50;85.01
55044;BME280;54902;50.420;18.854;2022-12-18T00:40:06;102870.41;;;-3.50;84.99
55044;BME280;54902;50.420;18.854;2022-12-18T00:40:38;102877.54;;;-3.49;84.99
55044;BME280;54902;50.420;18.854;2022-12-18T00:41:10;102878.42;;;-3.50;85.01
55044;BME280;54902;50.420;18.854;2022-12-18T00:41:41;102874.88;;;-3.49;85.00
55044;BME280;54902;50.420;18.854;2022-12-18T00:42:24;102872.20;;;-3.49;85.02
55044;BME280;54902;50.420;18.854;2022-12-18T00:43:09;102880.23;;;-3.49;85.01
55044;BME280;54902;50.420;18.854;2022-12-18T00:43:40;102877.54;;;-3.49;85.02
55044;BME280;54902;50.420;18.854;2022-12-18T00:44:13;102878.43;;;-3.48;85.01
55044;BME280;54902;50.420;18.854;2022-12-18T00:44:44;102874.00;;;-3.49;85.03
55044;BME280;54902;50.420;18.854;2022-12-18T00:45:15;102877.54;;;-3.49;85.01
55044;BME280;54902;50.420;18.854;2022-12-18T00:45:46;102874.00;;;-3.49;85.01
55044;BME280;54902;50.420;18.854;2022-12-18T00:46:17;102880.23;;;-3.49;85.01
55044;BME280;54902;50.420;18.854;2022-12-18T00:46:48;102880.23;;;-3.49;85.02
55044;BME280;54902;50.420;18.854;2022-12-18T00:47:19;102879.34;;;-3.49;85.03
55044;BME280;54902;50.420;18.854;2022-12-18T00:47:51;102880.23;;;-3.49;85.02
55044;BME280;54902;50.420;18.854;2022-12-18T00:48:22;102891.78;;;-3.48;85.01
55044;BME280;54902;50.420;18.854;2022-12-18T00:48:53;102881.10;;;-3.48;85.01
55044;BME280;54902;50.420;18.854;2022-12-18T00:49:24;102877.54;;;-3.49;85.03
55044;BME280;54902;50.420;18.854;2022-12-18T00:49:55;102886.44;;;-3.48;85.03
55044;BME280;54902;50.420;18.854;2022-12-18T00:50:28;102883.77;;;-3.48;85.02
55044;BME280;54902;50.420;18.854;2022-12-18T00:50:59;102880.23;;;-3.49;85.02
55044;BME280;54902;50.420;18.854;2022-12-18T00:51:30;102879.34;;;-3.49;85.01
55044;BME280;54902;50.420;18.854;2022-12-18T00:52:01;102885.56;;;-3.49;85.00
55044;BME280;54902;50.420;18.854;2022-12-18T00:52:32;102890.91;;;-3.49;85.00
55044;BME280;54902;50.420;18.854;2022-12-18T00:53:03;102880.23;;;-3.49;85.00
55044;BME280;54902;50.420;18.854;2022-12-18T00:53:34;102864.13;;;-3.61;84.99
55044;BME280;54902;50.420;18.854;2022-12-18T00:54:05;102891.78;;;-3.48;84.99
55044;BME280;54902;50.420;18.854;2022-12-18T00:54:37;102892.69;;;-3.48;85.00
55044;BME280;54902;50.420;18.854;2022-12-18T00:55:08;102896.24;;;-3.49;85.01
55044;BME280;54902;50.420;18.854;2022-12-18T00:55:39;102896.24;;;-3.49;85.02
55044;BME280;54902;50.420;18.854;2022-12-18T00:56:11;102887.35;;;-3.48;85.02
55044;BME280;54902;50.420;18.854;2022-12-18T00:56:42;102898.03;;;-3.48;85.00
55044;BME280;54902;50.420;18.854;2022-12-18T00:57:13;102898.03;;;-3.48;85.01
55044;BME280;54902;50.420;18.854;2022-12-18T00:57:43;102887.35;;;-3.48;85.02
55044;BME280;54902;50.420;18.854;2022-12-18T00:58:15;102893.58;;;-3.47;85.01
55044;BME280;54902;50.420;18.854;2022-12-18T00:58:47;102892.69;;;-3.48;85.02
55044;BME280;54902;50.420;18.854;2022-12-18T00:59:18;102898.03;;;-3.48;85.02
55044;BME280;54902;50.420;18.854;2022-12-18T00:59:49;102898.03;;;-3.48;85.01
55044;BME280;54902;50.420;18.854;2022-12-18T01:00:20;102900.71;;;-3.48;85.02
55044;BME280;54902;50.420;18.854;2022-12-18T01:00:52;102898.03;;;-3.48;85.02
55044;BME280;54902;50.420;18.854;2022-12-18T01:01:23;102904.26;;;-3.47;85.02
55044;BME280;54902;50.420;18.854;2022-12-18T01:01:54;102898.03;;;-3.48;85.01
55044;BME280;54902;50.420;18.854;2022-12-18T01:02:25;102905.17;;;-3.47;85.01
55044;BME280;54902;50.420;18.854;2022-12-18T01:02:56;102912.27;;;-3.47;85.02
55044;BME280;54902;50.420;18.854;2022-12-18T01:03:27;102909.61;;;-3.47;85.03
55044;BME280;54902;50.420;18.854;2022-12-18T01:04:00;102910.52;;;-3.47;85.02
55044;BME280;54902;50.420;18.854;2022-12-18T01:04:32;102911.39;;;-3.47;85.02
55044;BME280;54902;50.420;18.854;2022-12-18T01:05:04;102917.62;;;-3.46;85.03
55044;BME280;54902;50.420;18.854;2022-12-18T01:05:39;102916.73;;;-3.47;85.02
55044;BME280;54902;50.420;18.854;2022-12-18T01:06:12;102914.94;;;-3.46;85.03
55044;BME280;54902;50.420;18.854;2022-12-18T01:06:43;102915.86;;;-3.47;85.01
55044;BME280;54902;50.420;18.854;2022-12-18T01:07:14;102913.19;;;-3.47;85.03
55044;BME280;54902;50.420;18.854;2022-12-18T01:07:45;102915.86;;;-3.47;85.02
55044;BME280;54902;50.420;18.854;2022-12-18T01:08:16;102916.73;;;-3.47;85.03
55044;BME280;54902;50.420;18.854;2022-12-18T01:08:47;102917.62;;;-3.46;85.03
55044;BME280;54902;50.420;18.854;2022-12-18T01:09:18;102924.76;;;-3.45;85.02
55044;BME280;54902;50.420;18.854;2022-12-18T01:09:49;102928.30;;;-3.46;85.03
55044;BME280;54902;50.420;18.854;2022-12-18T01:10:20;102916.73;;;-3.47;85.03
55044;BME280;54902;50.420;18.854;2022-12-18T01:10:51;102913.20;;;-3.46;85.03
55044;BME280;54902;50.420;18.854;2022-12-18T01:11:23;102917.62;;;-3.46;85.05
55044;BME280;54902;50.420;18.854;2022-12-18T01:11:54;102917.62;;;-3.46;85.04
55044;BME280;54902;50.420;18.854;2022-12-18T01:12:25;102918.54;;;-3.46;85.05
55044;BME280;54902;50.420;18.854;2022-12-18T01:12:56;102919.41;;;-3.45;85.06
55044;BME280;54902;50.420;18.854;2022-12-18T01:13:27;102920.27;;;-3.46;85.06
55044;BME280;54902;50.420;18.854;2022-12-18T01:13:59;102913.20;;;-3.46;85.07
55044;BME280;54902;50.420;18.854;2022-12-18T01:14:30;102907.85;;;-3.46;85.06
55044;BME280;54902;50.420;18.854;2022-12-18T01:15:02;102911.39;;;-3.47;85.06
55044;BME280;54902;50.420;18.854;2022-12-18T01:15:34;102916.73;;;-3.47;85.06
55044;BME280;54902;50.420;18.854;2022-12-18T01:16:05;102908.73;;;-3.45;85.05
55044;BME280;54902;50.420;18.854;2022-12-18T01:16:36;102906.94;;;-3.46;85.07
55044;BME280;54902;50.420;18.854;2022-12-18T01:17:07;102901.59;;;-3.46;85.06
55044;BME280;54902;50.420;18.854;2022-12-18T01:17:38;102911.40;;;-3.45;85.06
55044;BME280;54902;50.420;18.854;2022-12-18T01:18:09;102912.28;;;-3.46;85.06
55044;BME280;54902;50.420;18.854;2022-12-18T01:18:40;102914.94;;;-3.46;85.07
55044;BME280;54902;50.420;18.854;2022-12-18T01:19:11;102913.20;;;-3.46;85.07
55044;BME280;54902;50.420;18.854;2022-12-18T01:19:42;102907.85;;;-3.46;85.07
55044;BME280;54902;50.420;18.854;2022-12-18T01:20:13;102915.86;;;-3.46;85.08
55044;BME280;54902;50.420;18.854;2022-12-18T01:20:44;102912.28;;;-3.46;85.07
55044;BME280;54902;50.420;18.854;2022-12-18T01:21:16;102918.54;;;-3.46;85.08
55044;BME280;54902;50.420;18.854;2022-12-18T01:21:47;102911.39;;;-3.47;85.08
55044;BME280;54902;50.420;18.854;2022-12-18T01:22:18;102911.39;;;-3.47;85.12
55044;BME280;54902;50.420;18.854;2022-12-18T01:22:49;102919.41;;;-3.47;85.09
55044;BME280;54902;50.420;18.854;2022-12-18T01:23:20;102917.62;;;-3.46;85.09
55044;BME280;54902;50.420;18.854;2022-12-18T01:23:52;102910.52;;;-3.47;85.07
55044;BME280;54902;50.420;18.854;2022-12-18T01:24:24;102914.05;;;-3.48;85.10
55044;BME280;54902;50.420;18.854;2022-12-18T01:24:55;102915.86;;;-3.47;85.08
55044;BME280;54902;50.420;18.854;2022-12-18T01:25:26;102915.86;;;-3.47;85.10
55044;BME280;54902;50.420;18.854;2022-12-18T01:25:57;102915.86;;;-3.47;85.08
55044;BME280;54902;50.420;18.854;2022-12-18T01:26:28;102908.72;;;-3.48;85.09
55044;BME280;54902;50.420;18.854;2022-12-18T01:27:00;102914.94;;;-3.47;85.09
55044;BME280;54902;50.420;18.854;2022-12-18T01:27:31;102926.54;;;-3.47;85.10
55044;BME280;54902;50.420;18.854;2022-12-18T01:28:03;102921.20;;;-3.47;85.11
55044;BME280;54902;50.420;18.854;2022-12-18T01:28:34;102921.20;;;-3.47;85.10
55044;BME280;54902;50.420;18.854;2022-12-18T01:29:05;102916.73;;;-3.48;85.10
55044;BME280;54902;50.420;18.854;2022-12-18T01:29:36;102916.73;;;-3.48;85.10
55044;BME280;54902;50.420;18.854;2022-12-18T01:30:08;102914.94;;;-3.47;85.10
55044;BME280;54902;50.420;18.854;2022-12-18T01:30:39;102916.73;;;-3.48;85.10
55044;BME280;54902;50.420;18.854;2022-12-18T01:31:17;102914.05;;;-3.48;85.10
55044;BME280;54902;50.420;18.854;2022-12-18T01:31:48;102919.40;;;-3.48;85.10
55044;BME280;54902;50.420;18.854;2022-12-18T01:32:20;102913.19;;;-3.47;85.10
55044;BME280;54902;50.420;18.854;2022-12-18T01:32:51;102911.39;;;-3.48;85.10
55044;BME280;54902;50.420;18.854;2022-12-18T01:33:22;102914.05;;;-3.48;85.10
55044;BME280;54902;50.420;18.854;2022-12-18T01:33:53;102913.15;;;-3.48;85.11
55044;BME280;54902;50.420;18.854;2022-12-18T01:34:24;102908.72;;;-3.48;85.09
55044;BME280;54902;50.420;18.854;2022-12-18T01:34:55;102913.15;;;-3.48;85.10
55044;BME280;54902;50.420;18.854;2022-12-18T01:35:26;102908.72;;;-3.48;85.10
55044;BME280;54902;50.420;18.854;2022-12-18T01:35:57;102921.20;;;-3.47;85.10
55044;BME280;54902;50.420;18.854;2022-12-18T01:36:31;102915.80;;;-3.48;85.11
55044;BME280;54902;50.420;18.854;2022-12-18T01:37:05;102919.40;;;-3.48;85.11
55044;BME280;54902;50.420;18.854;2022-12-18T01:37:36;102909.61;;;-3.49;85.09
55044;BME280;54902;50.420;18.854;2022-12-18T01:38:07;102919.40;;;-3.48;85.12
55044;BME280;54902;50.420;18.854;2022-12-18T01:38:38;102912.27;;;-3.49;85.12
55044;BME280;54902;50.420;18.854;2022-12-18T01:39:11;102922.95;;;-3.49;85.11
55044;BME280;54902;50.420;18.854;2022-12-18T01:39:43;102918.49;;;-3.48;85.12
55044;BME280;54902;50.420;18.854;2022-12-18T01:40:14;102930.95;;;-3.47;85.10
55044;BME280;54902;50.420;18.854;2022-12-18T01:40:44;102929.17;;;-3.48;85.12
55044;BME280;54902;50.420;18.854;2022-12-18T01:41:17;102930.09;;;-3.48;85.13
55044;BME280;54902;50.420;18.854;2022-12-18T01:41:49;102926.49;;;-3.48;85.11
55044;BME280;54902;50.420;18.854;2022-12-18T01:42:32;102926.49;;;-3.48;85.10
55044;BME280;54902;50.420;18.854;2022-12-18T01:43:03;102932.75;;;-3.49;85.11
55044;BME280;54902;50.420;18.854;2022-12-18T01:43:41;102917.60;;;-3.49;85.09
55044;BME280;54902;50.420;18.854;2022-12-18T01:45:40;102931.84;;;-3.50;85.12
55044;BME280;54902;50.420;18.854;2022-12-18T01:46:11;102933.62;;;-3.49;85.11
55044;BME280;54902;50.420;18.854;2022-12-18T01:46:42;102931.84;;;-3.50;85.12
55044;BME280;54902;50.420;18.854;2022-12-18T01:47:24;102932.75;;;-3.49;85.12
55044;BME280;54902;50.420;18.854;2022-12-18T01:48:02;102931.84;;;-3.50;85.12
55044;BME280;54902;50.420;18.854;2022-12-18T01:48:34;102905.95;;;-3.61;85.10
55044;BME280;54902;50.420;18.854;2022-12-18T01:49:05;102928.28;;;-3.50;85.11
55044;BME280;54902;50.420;18.854;2022-12-18T01:49:36;102938.10;;;-3.49;85.10
55044;BME280;54902;50.420;18.854;2022-12-18T01:50:10;102932.74;;;-3.51;85.11
55044;BME280;54902;50.420;18.854;2022-12-18T01:50:42;102936.29;;;-3.50;85.10
55044;BME280;54902;50.420;18.854;2022-12-18T01:51:14;102936.29;;;-3.50;85.08
55044;BME280;54902;50.420;18.854;2022-12-18T01:51:45;102935.41;;;-3.51;85.10
55044;BME280;54902;50.420;18.854;2022-12-18T01:52:17;102941.64;;;-3.50;85.07
55044;BME280;54902;50.420;18.854;2022-12-18T01:52:55;102938.97;;;-3.52;85.07
55044;BME280;54902;50.420;18.854;2022-12-18T01:53:27;102936.29;;;-3.52;85.08
55044;BME280;54902;50.420;18.854;2022-12-18T01:53:59;102931.81;;;-3.53;85.07
55044;BME280;54902;50.420;18.854;2022-12-18T01:54:30;102942.49;;;-3.53;85.07
55044;BME280;54902;50.420;18.854;2022-12-18T01:55:04;102937.16;;;-3.53;85.07
55044;BME280;54902;50.420;18.854;2022-12-18T01:55:43;102937.16;;;-3.53;85.05
55044;BME280;54902;50.420;18.854;2022-12-18T01:56:18;102938.04;;;-3.54;85.06
55044;BME280;54902;50.420;18.854;2022-12-18T01:56:49;102945.16;;;-3.54;85.07
55044;BME280;54902;50.420;18.854;2022-12-18T01:57:22;102938.04;;;-3.54;85.07
55044;BME280;54902;50.420;18.854;2022-12-18T01:57:55;102944.29;;;-3.55;85.05
55044;BME280;54902;50.420;18.854;2022-12-18T01:58:37;102946.05;;;-3.54;85.06
55044;BME280;54902;50.420;18.854;2022-12-18T01:59:10;102941.62;;;-3.55;85.06
55044;BME280;54902;50.420;18.854;2022-12-18T01:59:43;102941.62;;;-3.55;85.04
55044;BME280;54902;50.420;18.854;2022-12-18T02:00:19;102946.96;;;-3.55;85.05
55044;BME280;54902;50.420;18.854;2022-12-18T02:00:50;102953.17;;;-3.56;85.05
55044;BME280;54902;50.420;18.854;2022-12-18T02:01:23;102946.96;;;-3.55;85.05
55044;BME280;54902;50.420;18.854;2022-12-18T02:01:54;102947.83;;;-3.56;85.04
55044;BME280;54902;50.420;18.854;2022-12-18T02:02:27;102948.70;;;-3.55;85.05
55044;BME280;54902;50.420;18.854;2022-12-18T02:02:59;102948.70;;;-3.55;85.06
55044;BME280;54902;50.420;18.854;2022-12-18T02:03:31;102955.84;;;-3.56;85.06
55044;BME280;54902;50.420;18.854;2022-12-18T02:04:45;102958.52;;;-3.56;85.05
55044;BME280;54902;50.420;18.854;2022-12-18T02:05:29;102953.17;;;-3.56;85.05
55044;BME280;54902;50.420;18.854;2022-12-18T02:06:09;102951.37;;;-3.57;85.05
55044;BME280;54902;50.420;18.854;2022-12-18T02:06:41;102956.71;;;-3.57;85.05
55044;BME280;54902;50.420;18.854;2022-12-18T02:08:09;102961.18;;;-3.57;85.05
55044;BME280;54902;50.420;18.854;2022-12-18T02:10:16;102958.46;;;-3.59;85.04
55044;BME280;54902;50.420;18.854;2022-12-18T02:12:20;102972.73;;;-3.57;85.03
55044;BME280;54902;50.420;18.854;2022-12-18T02:13:02;102975.41;;;-3.58;85.02
55044;BME280;54902;50.420;18.854;2022-12-18T02:17:52;102980.73;;;-3.61;84.99
55044;BME280;54902;50.420;18.854;2022-12-18T02:18:34;102981.60;;;-3.61;84.99
55044;BME280;54902;50.420;18.854;2022-12-18T02:19:37;102987.83;;;-3.60;85.00
55044;BME280;54902;50.420;18.854;2022-12-18T02:22:07;102987.82;;;-3.62;84.99
55044;BME280;54902;50.420;18.854;2022-12-18T02:25:13;102991.37;;;-3.63;84.99
55044;BME280;54902;50.420;18.854;2022-12-18T02:26:41;102982.47;;;-3.63;84.98
55044;BME280;54902;50.420;18.854;2022-12-18T02:27:03;102984.27;;;-3.62;84.99
55044;BME280;54902;50.420;18.854;2022-12-18T02:27:37;102988.69;;;-3.63;84.99
55044;BME280;54902;50.420;18.854;2022-12-18T02:28:13;102985.14;;;-3.63;84.98
55044;BME280;54902;50.420;18.854;2022-12-18T02:29:39;102983.35;;;-3.63;84.97
55044;BME280;54902;50.420;18.854;2022-12-18T02:30:12;102990.48;;;-3.63;84.97
55044;BME280;54902;50.420;18.854;2022-12-18T02:30:45;102984.27;;;-3.64;84.96
55044;BME280;54902;50.420;18.854;2022-12-18T02:31:23;102991.34;;;-3.64;84.95
55044;BME280;54902;50.420;18.854;2022-12-18T02:31:57;102993.14;;;-3.65;84.95
55044;BME280;54902;50.420;18.854;2022-12-18T02:32:35;102989.60;;;-3.64;84.95
55044;BME280;54902;50.420;18.854;2022-12-18T02:33:09;102986.93;;;-3.65;84.95
55044;BME280;54902;50.420;18.854;2022-12-18T02:33:43;102983.35;;;-3.64;84.95
55044;BME280;54902;50.420;18.854;2022-12-18T02:34:17;102974.35;;;-3.77;84.93
55044;BME280;54902;50.420;18.854;2022-12-18T02:34:50;102995.81;;;-3.65;84.95
55044;BME280;54902;50.420;18.854;2022-12-18T02:35:26;102988.67;;;-3.66;84.93
55044;BME280;54902;50.420;18.854;2022-12-18T02:35:59;102989.59;;;-3.65;84.93
55044;BME280;54902;50.420;18.854;2022-12-18T02:36:33;102988.67;;;-3.66;84.92
55044;BME280;54902;50.420;18.854;2022-12-18T02:37:10;102999.35;;;-3.66;84.92
55044;BME280;54902;50.420;18.854;2022-12-18T02:37:45;103005.62;;;-3.65;84.92
55044;BME280;54902;50.420;18.854;2022-12-18T02:38:17;103007.38;;;-3.66;84.88
55044;BME280;54902;50.420;18.854;2022-12-18T02:38:50;103002.02;;;-3.66;84.89
55044;BME280;54902;50.420;18.854;2022-12-18T02:39:22;102989.55;;;-3.67;84.90
55044;BME280;54902;50.420;18.854;2022-12-18T02:39:56;103002.02;;;-3.67;84.90
55044;BME280;54902;50.420;18.854;2022-12-18T02:40:29;103002.91;;;-3.67;84.88
55044;BME280;54902;50.420;18.854;2022-12-18T02:41:02;102994.88;;;-3.67;84.89
55044;BME280;54902;50.420;18.854;2022-12-18T02:41:34;103008.24;;;-3.67;84.89
55044;BME280;54902;50.420;18.854;2022-12-18T02:42:07;103007.35;;;-3.67;84.88
55044;BME280;54902;50.420;18.854;2022-12-18T02:42:38;102980.55;;;-3.79;84.87
55044;BME280;54902;50.420;18.854;2022-12-18T02:43:12;103002.02;;;-3.69;84.89
55044;BME280;54902;50.420;18.854;2022-12-18T02:43:48;103008.23;;;-3.68;84.86
55044;BME280;54902;50.420;18.854;2022-12-18T02:44:19;102999.34;;;-3.69;84.87
55044;BME280;54902;50.420;18.854;2022-12-18T02:44:51;103001.13;;;-3.68;84.88
55044;BME280;54902;50.420;18.854;2022-12-18T02:45:25;103009.14;;;-3.68;84.86
55044;BME280;54902;50.420;18.854;2022-12-18T02:45:58;103010.02;;;-3.69;84.86
55044;BME280;54902;50.420;18.854;2022-12-18T02:46:33;103010.02;;;-3.69;84.87
55044;BME280;54902;50.420;18.854;2022-12-18T02:47:12;103010.02;;;-3.69;84.88
55044;BME280;54902;50.420;18.854;2022-12-18T02:47:48;103006.47;;;-3.68;84.86
55044;BME280;54902;50.420;18.854;2022-12-18T02:48:24;103013.56;;;-3.70;84.88
55044;BME280;54902;50.420;18.854;2022-12-18T02:49:05;103004.66;;;-3.70;84.87
55044;BME280;54902;50.420;18.854;2022-12-18T02:51:17;103012.68;;;-3.69;84.88
55044;BME280;54902;50.420;18.854;2022-12-18T02:51:57;103008.22;;;-3.70;84.89
55044;BME280;54902;50.420;18.854;2022-12-18T02:52:39;103020.69;;;-3.69;84.89
55044;BME280;54902;50.420;18.854;2022-12-18T02:54:08;103017.10;;;-3.71;84.87
55044;BME280;54902;50.420;18.854;2022-12-18T02:54:51;103022.44;;;-3.71;84.89
55044;BME280;54902;50.420;18.854;2022-12-18T02:55:31;103013.56;;;-3.70;84.90
55044;BME280;54902;50.420;18.854;2022-12-18T02:56:19;103026.04;;;-3.69;84.90
55044;BME280;54902;50.420;18.854;2022-12-18T02:56:51;103022.48;;;-3.68;84.90
55044;BME280;54902;50.420;18.854;2022-12-18T02:57:37;103020.69;;;-3.69;84.89
55044;BME280;54902;50.420;18.854;2022-12-18T02:59:00;103020.69;;;-3.69;84.89
55044;BME280;54902;50.420;18.854;2022-12-18T02:59:44;103021.57;;;-3.70;84.88
55044;BME280;54902;50.420;18.854;2022-12-18T03:00:22;103024.24;;;-3.70;84.88
55044;BME280;54902;50.420;18.854;2022-12-18T03:01:48;103026.91;;;-3.70;84.87
55044;BME280;54902;50.420;18.854;2022-12-18T03:02:29;103028.70;;;-3.70;84.86
55044;BME280;54902;50.420;18.854;2022-12-18T03:03:59;103034.91;;;-3.70;84.89
55044;BME280;54902;50.420;18.854;2022-12-18T03:04:47;103033.12;;;-3.71;84.87
55044;BME280;54902;50.420;18.854;2022-12-18T03:05:23;103038.46;;;-3.71;84.87
55044;BME280;54902;50.420;18.854;2022-12-18T03:06:07;103040.25;;;-3.70;84.89
55044;BME280;54902;50.420;18.854;2022-12-18T03:06:44;103042.93;;;-3.70;84.89
55044;BME280;54902;50.420;18.854;2022-12-18T03:07:26;103038.46;;;-3.71;84.88
55044;BME280;54902;50.420;18.854;2022-12-18T03:08:07;103043.80;;;-3.71;84.88
55044;BME280;54902;50.420;18.854;2022-12-18T03:08:45;103040.25;;;-3.70;84.90
55044;BME280;54902;50.420;18.854;2022-12-18T03:09:30;103045.59;;;-3.70;84.88
55044;BME280;54902;50.420;18.854;2022-12-18T03:10:01;103040.25;;;-3.70;84.89
55044;BME280;54902;50.420;18.854;2022-12-18T03:10:38;103047.40;;;-3.69;84.89
55044;BME280;54902;50.420;18.854;2022-12-18T03:11:12;103047.40;;;-3.69;84.88
55044;BME280;54902;50.420;18.854;2022-12-18T03:11:53;103047.40;;;-3.69;84.89
55044;BME280;54902;50.420;18.854;2022-12-18T03:12:41;103047.38;;;-3.70;84.89
55044;BME280;54902;50.420;18.854;2022-12-18T03:13:20;103044.71;;;-3.70;84.88